createdAt,value
2019-04-14T00:00:22.934Z,61.20
2019-04-14T00:01:21.798Z,61.00
2019-04-14T00:02:22.812Z,61.70
2019-04-14T00:03:21.783Z,61.30
2019-04-14T00:04:22.594Z,63.40
2019-04-14T00:05:21.757Z,61.50
2019-04-14T00:06:22.408Z,63.40
2019-04-14T00:07:22.974Z,64.80
2019-04-14T00:08:22.065Z,62.00
2019-04-14T00:09:22.714Z,60.90
2019-04-14T00:10:22.552Z,61.50
2019-04-14T00:11:21.747Z,63.20
2019-04-14T00:12:22.895Z,60.80
2019-04-14T00:13:21.789Z,62.40
2019-04-14T00:14:22.789Z,63.40
2019-04-14T00:15:31.001Z,62.30
2019-04-14T00:16:22.807Z,63.10
2019-04-14T00:17:21.703Z,62.70
2019-04-14T00:18:22.688Z,61.00
2019-04-14T00:19:21.802Z,61.10
2019-04-14T00:20:22.629Z,60.20
2019-04-14T00:21:21.594Z,60.00
2019-04-14T00:22:22.666Z,56.00
2019-04-14T00:23:21.616Z,59.10
2019-04-14T00:24:22.776Z,58.80
2019-04-14T00:25:21.696Z,55.90
2019-04-14T00:26:22.599Z,55.00
2019-04-14T00:27:21.529Z,52.20
2019-04-14T00:28:22.670Z,54.30
2019-04-14T00:29:21.822Z,51.60
2019-04-14T00:30:21.490Z,51.10
2019-04-14T00:31:21.722Z,49.20
2019-04-14T00:32:22.592Z,45.40
2019-04-14T00:33:21.447Z,48.70
2019-04-14T00:34:22.434Z,48.90
2019-04-14T00:35:21.432Z,48.50
2019-04-14T00:36:21.907Z,47.80
2019-04-14T00:37:22.653Z,51.50
2019-04-14T00:38:21.804Z,51.70
2019-04-14T00:39:22.564Z,49.70
2019-04-14T00:40:21.604Z,50.20
2019-04-14T00:41:34.557Z,52.60
2019-04-14T00:42:23.437Z,52.10
2019-04-14T00:43:22.036Z,55.30
2019-04-14T00:44:21.371Z,56.90
2019-04-14T00:45:32.148Z,59.40
2019-04-14T00:46:23.271Z,59.90
2019-04-14T00:47:22.177Z,60.00
2019-04-14T00:48:22.630Z,60.20
2019-04-14T00:49:22.183Z,58.90
2019-04-14T00:50:21.277Z,62.40
2019-04-14T00:51:22.097Z,58.20
2019-04-14T00:52:21.328Z,61.50
2019-04-14T00:53:21.253Z,62.10
2019-04-14T00:54:21.763Z,61.90
2019-04-14T00:55:21.218Z,63.00
2019-04-14T00:56:21.536Z,59.80
2019-04-14T00:57:22.263Z,61.30
2019-04-14T00:58:21.490Z,61.60
2019-04-14T00:59:22.220Z,60.90
2019-04-14T01:00:21.953Z,63.20
2019-04-14T01:01:21.895Z,62.90
2019-04-14T01:02:21.368Z,63.30
2019-04-14T01:03:22.012Z,62.40
2019-04-14T01:04:21.174Z,64.40
2019-04-14T01:05:21.745Z,60.70
2019-04-14T01:06:21.100Z,62.30
2019-04-14T01:07:21.642Z,64.50
2019-04-14T01:08:21.082Z,64.30
2019-04-14T01:09:21.623Z,63.90
2019-04-14T01:10:21.340Z,65.00
2019-04-14T01:11:21.048Z,66.20
2019-04-14T01:12:21.392Z,66.50
2019-04-14T01:13:22.110Z,64.70
2019-04-14T01:14:21.310Z,69.00
2019-04-14T01:15:22.139Z,65.10
2019-04-14T01:16:23.887Z,66.30
2019-04-14T01:17:22.034Z,68.00
2019-04-14T01:18:21.337Z,66.20
2019-04-14T01:19:21.979Z,65.70
2019-04-14T01:20:21.159Z,67.20
2019-04-14T01:21:21.769Z,66.70
2019-04-14T01:22:20.939Z,65.80
2019-04-14T01:23:21.534Z,63.60
2019-04-14T01:24:20.970Z,66.60
2019-04-14T01:25:21.533Z,64.50
2019-04-14T01:26:20.894Z,67.90
2019-04-14T01:27:21.149Z,66.80
2019-04-14T01:28:22.160Z,66.70
2019-04-14T01:29:21.013Z,66.10
2019-04-14T01:30:21.927Z,67.20
2019-04-14T01:31:20.884Z,69.00
2019-04-14T01:32:21.828Z,70.00
2019-04-14T01:33:20.837Z,69.50
2019-04-14T01:34:21.684Z,71.70
2019-04-14T01:35:20.823Z,70.60
2019-04-14T01:36:21.283Z,68.90
2019-04-14T01:37:20.808Z,71.20
2019-04-14T01:38:21.157Z,70.70
2019-04-14T01:39:22.076Z,72.60
2019-04-14T01:40:20.763Z,71.10
2019-04-14T01:41:21.699Z,73.10
2019-04-14T01:42:20.723Z,72.70
2019-04-14T01:43:21.336Z,72.20
2019-04-14T01:44:22.002Z,72.80
2019-04-14T01:45:21.088Z,69.00
2019-04-14T01:46:25.929Z,70.60
2019-04-14T01:47:22.705Z,70.20
2019-04-14T01:48:21.410Z,69.10
2019-04-14T01:49:20.655Z,70.90
2019-04-14T01:50:21.259Z,69.40
2019-04-14T01:51:20.678Z,74.10
2019-04-14T01:52:21.008Z,73.60
2019-04-14T01:53:20.840Z,72.80
2019-04-14T01:54:21.414Z,72.90
2019-04-14T01:55:20.587Z,73.00
2019-04-14T01:56:20.894Z,72.70
2019-04-14T01:57:20.614Z,71.70
2019-04-14T01:58:20.811Z,74.10
2019-04-14T01:59:20.573Z,74.00
2019-04-14T02:00:20.880Z,74.40
2019-04-14T02:01:21.647Z,75.20
2019-04-14T02:02:20.651Z,73.00
2019-04-14T02:03:21.478Z,72.70
2019-04-14T02:04:20.504Z,74.50
2019-04-14T02:05:21.383Z,76.80
2019-04-14T02:06:20.502Z,74.70
2019-04-14T02:07:21.174Z,71.50
2019-04-14T02:08:20.473Z,75.70
2019-04-14T02:09:20.874Z,72.20
2019-04-14T02:10:21.556Z,69.70
2019-04-14T02:11:20.622Z,74.70
2019-04-14T02:12:21.431Z,72.30
2019-04-14T02:13:20.437Z,72.70
2019-04-14T02:14:21.162Z,72.50
2019-04-14T02:15:20.459Z,75.40
2019-04-14T02:16:30.302Z,71.00
2019-04-14T02:17:22.047Z,67.90
2019-04-14T02:18:20.857Z,71.40
2019-04-14T02:19:20.352Z,68.50
2019-04-14T02:20:20.741Z,67.80
2019-04-14T02:21:21.524Z,66.60
2019-04-14T02:22:20.355Z,70.90
2019-04-14T02:23:21.392Z,68.40
2019-04-14T02:24:20.342Z,71.40
2019-04-14T02:25:21.012Z,71.60
2019-04-14T02:26:20.305Z,69.60
2019-04-14T02:27:21.023Z,68.60
2019-04-14T02:28:20.241Z,71.70
2019-04-14T02:29:21.156Z,68.80
2019-04-14T02:30:25.132Z,70.20
2019-04-14T02:31:39.355Z,72.80
2019-04-14T02:32:49.498Z,69.50
2019-04-14T02:33:46.054Z,69.90
2019-04-14T02:34:49.581Z,73.00
2019-04-14T02:36:09.885Z,68.70
2019-04-14T02:36:48.353Z,70.80
2019-04-14T02:39:53.682Z,71.00
2019-04-14T02:40:55.908Z,70.20
2019-04-14T02:42:52.221Z,67.50
2019-04-14T02:43:57.181Z,69.50
2019-04-14T02:44:51.907Z,69.60
2019-04-14T02:45:50.500Z,70.60
2019-04-14T02:50:47.731Z,70.50
2019-04-14T02:51:54.185Z,70.80
2019-04-14T02:52:53.792Z,68.50
2019-04-14T02:53:50.087Z,69.00
2019-04-14T02:54:51.703Z,69.70
2019-04-14T02:55:48.977Z,72.50
2019-04-14T02:56:45.375Z,69.70
2019-04-14T02:57:47.574Z,67.30
2019-04-14T03:00:47.832Z,74.10
2019-04-14T03:02:02.349Z,77.10
2019-04-14T03:02:44.140Z,73.90
2019-04-14T03:03:43.054Z,72.30
2019-04-14T03:04:50.777Z,75.60
2019-04-14T03:06:50.465Z,71.80
2019-04-14T03:07:45.699Z,67.80
2019-04-14T03:08:50.780Z,70.60
2019-04-14T03:10:25.831Z,69.70
2019-04-14T03:10:48.145Z,66.90
2019-04-14T03:11:49.067Z,70.40
2019-04-14T03:12:54.618Z,69.40
2019-04-14T03:13:51.383Z,67.60
2019-04-14T03:14:50.297Z,68.30
2019-04-14T03:15:48.217Z,65.40
2019-04-14T03:17:03.278Z,63.10
2019-04-14T03:17:47.284Z,69.40
2019-04-14T03:18:44.670Z,66.30
2019-04-14T03:19:56.458Z,63.90
2019-04-14T03:20:40.076Z,66.60
2019-04-14T03:22:49.788Z,63.60
2019-04-14T03:23:53.405Z,64.30
2019-04-14T03:24:37.469Z,63.90
2019-04-14T03:25:46.885Z,64.60
2019-04-14T03:26:51.791Z,64.90
2019-04-14T03:27:49.959Z,65.30
2019-04-14T03:29:43.398Z,68.40
2019-04-14T03:32:02.366Z,65.10
2019-04-14T03:34:12.924Z,66.80
2019-04-14T03:34:59.238Z,62.00
2019-04-14T03:37:54.091Z,63.20
2019-04-14T03:41:51.018Z,63.60
2019-04-14T03:42:54.224Z,61.20
2019-04-14T03:43:41.050Z,60.50
2019-04-14T03:44:56.260Z,59.40
2019-04-14T03:45:54.094Z,61.80
2019-04-14T03:47:46.044Z,60.40
2019-04-14T03:49:48.428Z,62.60
2019-04-14T03:50:45.507Z,60.70
2019-04-14T03:51:58.758Z,64.40
2019-04-14T03:52:49.717Z,62.40
2019-04-14T03:53:40.017Z,62.50
2019-04-14T03:54:40.461Z,60.20
2019-04-14T03:55:31.840Z,64.00
2019-04-14T03:56:21.651Z,62.40
2019-04-14T03:57:19.364Z,63.00
2019-04-14T03:58:20.359Z,65.40
2019-04-14T03:59:19.730Z,62.00
2019-04-14T04:00:20.212Z,65.20
2019-04-14T04:01:19.399Z,63.40
2019-04-14T04:02:20.370Z,65.00
2019-04-14T04:03:19.634Z,64.00
2019-04-14T04:04:20.431Z,64.50
2019-04-14T04:05:19.493Z,64.10
2019-04-14T04:06:20.252Z,63.30
2019-04-14T04:07:19.301Z,61.90
2019-04-14T04:08:20.121Z,65.00
2019-04-14T04:09:19.359Z,62.90
2019-04-14T04:10:19.189Z,59.50
2019-04-14T04:11:19.384Z,62.80
2019-04-14T04:12:20.384Z,61.40
2019-04-14T04:13:19.418Z,61.40
2019-04-14T04:14:20.248Z,63.80
2019-04-14T04:15:19.274Z,61.40
2019-04-14T04:16:20.113Z,62.80
2019-04-14T04:17:19.096Z,62.30
2019-04-14T04:18:19.877Z,62.40
2019-04-14T04:19:19.728Z,58.80
2019-04-14T04:20:19.628Z,60.40
2019-04-14T04:21:19.072Z,62.40
2019-04-14T04:22:19.350Z,63.00
2019-04-14T04:23:19.048Z,62.30
2019-04-14T04:24:19.274Z,63.90
2019-04-14T04:25:20.326Z,61.50
2019-04-14T04:26:19.155Z,60.00
2019-04-14T04:27:20.033Z,62.00
2019-04-14T04:28:19.004Z,61.00
2019-04-14T04:29:20.115Z,61.40
2019-04-14T04:30:18.965Z,59.10
2019-04-14T04:31:19.866Z,63.90
2019-04-14T04:32:18.975Z,60.10
2019-04-14T04:33:19.868Z,63.00
2019-04-14T04:34:18.917Z,60.60
2019-04-14T04:35:19.631Z,59.80
2019-04-14T04:36:18.920Z,62.70
2019-04-14T04:37:19.270Z,63.40
2019-04-14T04:38:19.984Z,62.20
2019-04-14T04:39:19.300Z,62.10
2019-04-14T04:40:20.027Z,62.70
2019-04-14T04:41:18.985Z,61.90
2019-04-14T04:42:19.845Z,62.50
2019-04-14T04:43:19.060Z,64.40
2019-04-14T04:44:20.135Z,62.00
2019-04-14T04:45:19.157Z,63.20
2019-04-14T04:46:19.760Z,64.60
2019-04-14T04:47:18.859Z,62.10
2019-04-14T04:48:19.629Z,61.20
2019-04-14T04:49:23.091Z,63.60
2019-04-14T04:50:19.751Z,62.50
2019-04-14T04:51:18.797Z,61.50
2019-04-14T04:52:19.115Z,60.60
2019-04-14T04:53:18.723Z,60.00
2019-04-14T04:54:18.943Z,59.30
2019-04-14T04:55:19.756Z,60.00
2019-04-14T04:56:18.751Z,62.20
2019-04-14T04:57:19.822Z,61.50
2019-04-14T04:58:19.487Z,58.50
2019-04-14T04:59:19.133Z,60.40
2019-04-14T05:00:19.722Z,61.40
2019-04-14T05:01:18.866Z,58.70
2019-04-14T05:02:19.620Z,61.70
2019-04-14T05:03:18.983Z,59.30
2019-04-14T05:04:19.797Z,57.70
2019-04-14T05:05:18.795Z,60.20
2019-04-14T05:06:20.861Z,59.20
2019-04-14T05:07:18.825Z,60.40
2019-04-14T05:08:19.546Z,58.80
2019-04-14T05:09:18.848Z,61.30
2019-04-14T05:10:19.550Z,60.70
2019-04-14T05:11:18.748Z,60.60
2019-04-14T05:12:19.551Z,60.90
2019-04-14T05:13:18.547Z,59.20
2019-04-14T05:14:19.479Z,58.10
2019-04-14T05:15:18.496Z,56.20
2019-04-14T05:16:19.224Z,59.70
2019-04-14T05:17:19.109Z,58.00
2019-04-14T05:18:19.903Z,56.50
2019-04-14T05:19:25.763Z,60.50
2019-04-14T05:20:20.301Z,58.70
2019-04-14T05:21:19.203Z,58.20
2019-04-14T05:22:20.532Z,57.90
2019-04-14T05:23:19.104Z,59.80
2019-04-14T05:24:18.401Z,57.00
2019-04-14T05:25:19.032Z,59.50
2019-04-14T05:26:18.382Z,59.70
2019-04-14T05:27:18.920Z,54.50
2019-04-14T05:28:18.386Z,55.80
2019-04-14T05:29:18.994Z,57.30
2019-04-14T05:30:19.615Z,57.00
2019-04-14T05:31:18.586Z,55.90
2019-04-14T05:32:19.371Z,58.50
2019-04-14T05:33:18.624Z,55.80
2019-04-14T05:34:19.448Z,52.70
2019-04-14T05:35:18.451Z,55.00
2019-04-14T05:36:19.289Z,53.60
2019-04-14T05:37:18.297Z,53.90
2019-04-14T05:38:19.059Z,52.70
2019-04-14T05:39:18.359Z,53.00
2019-04-14T05:40:18.885Z,49.90
2019-04-14T05:41:18.390Z,50.80
2019-04-14T05:42:22.055Z,50.00
2019-04-14T05:43:33.695Z,50.40
2019-04-14T05:44:19.183Z,48.70
2019-04-14T05:45:18.213Z,50.00
2019-04-14T05:46:18.565Z,51.90
2019-04-14T05:47:18.151Z,49.90
2019-04-14T05:48:18.286Z,51.40
2019-04-14T05:49:28.663Z,50.80
2019-04-14T05:50:20.228Z,47.40
2019-04-14T05:51:19.934Z,50.90
2019-04-14T05:52:18.521Z,51.40
2019-04-14T05:53:18.102Z,48.00
2019-04-14T05:54:18.553Z,52.10
2019-04-14T05:55:18.084Z,52.20
2019-04-14T05:56:18.650Z,51.40
2019-04-14T05:57:18.074Z,51.60
2019-04-14T05:58:18.607Z,52.30
2019-04-14T05:59:18.051Z,49.60
2019-04-14T06:00:19.056Z,49.50
2019-04-14T06:01:18.198Z,49.40
2019-04-14T06:02:18.119Z,48.50
2019-04-14T06:03:19.079Z,49.00
2019-04-14T06:04:17.989Z,50.30
2019-04-14T06:05:18.961Z,48.50
2019-04-14T06:06:17.957Z,46.90
2019-04-14T06:07:17.942Z,49.90
2019-04-14T06:08:18.527Z,48.30
2019-04-14T06:09:17.932Z,50.30
2019-04-14T06:10:17.923Z,47.30
2019-04-14T06:11:17.893Z,48.80
2019-04-14T06:12:17.887Z,50.40
2019-04-14T06:13:17.896Z,46.30
2019-04-14T06:14:17.880Z,48.60
2019-04-14T06:15:17.887Z,45.90
2019-04-14T06:16:17.854Z,48.20
2019-04-14T06:17:17.889Z,47.80
2019-04-14T06:18:17.949Z,49.60
2019-04-14T06:19:17.830Z,47.50
2019-04-14T06:20:17.805Z,50.50
2019-04-14T06:21:17.795Z,47.60
2019-04-14T06:22:17.798Z,47.00
2019-04-14T06:23:17.771Z,48.80
2019-04-14T06:24:17.778Z,50.10
2019-04-14T06:25:17.862Z,49.00
2019-04-14T06:26:17.780Z,51.20
2019-04-14T06:27:17.735Z,47.60
2019-04-14T06:28:17.722Z,46.70
2019-04-14T06:29:17.763Z,50.90
2019-04-14T06:30:17.721Z,50.80
2019-04-14T06:31:17.713Z,47.50
2019-04-14T06:32:17.692Z,47.60
2019-04-14T06:33:17.876Z,48.60
2019-04-14T06:34:17.739Z,47.40
2019-04-14T06:35:17.677Z,47.40
2019-04-14T06:36:17.685Z,47.80
2019-04-14T06:37:17.625Z,49.00
2019-04-14T06:38:17.621Z,51.30
2019-04-14T06:39:17.783Z,50.10
2019-04-14T06:40:17.598Z,50.50
2019-04-14T06:41:17.635Z,49.40
2019-04-14T06:42:17.577Z,50.30
2019-04-14T06:43:17.642Z,52.40
2019-04-14T06:44:17.611Z,55.50
2019-04-14T06:45:17.556Z,53.40
2019-04-14T06:46:17.530Z,54.70
2019-04-14T06:47:17.543Z,53.30
2019-04-14T06:48:17.520Z,61.00
2019-04-14T06:49:17.563Z,65.60
2019-04-14T06:50:17.523Z,61.10
2019-04-14T06:51:17.478Z,64.40
2019-04-14T06:52:17.476Z,63.60
2019-04-14T06:53:17.466Z,61.10
2019-04-14T06:54:17.465Z,64.20
2019-04-14T06:55:17.429Z,62.50
2019-04-14T06:56:17.432Z,76.70
2019-04-14T06:57:17.601Z,69.60
2019-04-14T06:58:17.415Z,73.30
2019-04-14T06:59:17.452Z,72.90
2019-04-14T07:00:17.396Z,70.90
2019-04-14T07:01:17.447Z,69.80
2019-04-14T07:02:17.353Z,67.80
2019-04-14T07:03:17.377Z,71.40
2019-04-14T07:04:17.800Z,70.50
2019-04-14T07:05:17.326Z,70.00
2019-04-14T07:06:17.376Z,81.30
2019-04-14T07:07:17.306Z,72.60
2019-04-14T07:08:17.313Z,78.70
2019-04-14T07:09:17.299Z,81.00
2019-04-14T07:10:17.303Z,80.00
2019-04-14T07:11:17.267Z,86.60
2019-04-14T07:12:17.328Z,80.00
2019-04-14T07:13:19.485Z,81.30
2019-04-14T07:14:17.227Z,82.20
2019-04-14T07:15:17.256Z,79.30
2019-04-14T07:16:17.426Z,75.80
2019-04-14T07:17:17.224Z,71.80
2019-04-14T07:18:17.206Z,75.40
2019-04-14T07:19:17.195Z,72.40
2019-04-14T07:20:17.179Z,73.90
2019-04-14T07:21:17.176Z,76.20
2019-04-14T07:22:17.159Z,66.10
2019-04-14T07:23:17.126Z,68.70
2019-04-14T07:24:17.133Z,72.90
2019-04-14T07:25:17.327Z,73.90
2019-04-14T07:26:17.104Z,76.60
2019-04-14T07:27:17.089Z,77.70
2019-04-14T07:28:17.267Z,75.20
2019-04-14T07:29:17.098Z,77.90
2019-04-14T07:30:17.076Z,80.00
2019-04-14T07:31:17.047Z,87.80
2019-04-14T07:32:17.156Z,83.50
2019-04-14T07:33:17.045Z,82.80
2019-04-14T07:34:17.038Z,92.20
2019-04-14T07:35:17.065Z,97.10
2019-04-14T07:36:16.991Z,99.50
2019-04-14T07:37:19.035Z,92.40
2019-04-14T07:38:17.044Z,96.30
2019-04-14T07:39:17.002Z,96.00
2019-04-14T07:40:16.980Z,97.70
2019-04-14T07:41:16.955Z,101.70
2019-04-14T07:42:16.927Z,96.20
2019-04-14T07:43:16.936Z,113.60
2019-04-14T07:44:16.927Z,102.60
2019-04-14T07:45:16.926Z,97.00
2019-04-14T07:46:16.943Z,87.10
2019-04-14T07:47:16.896Z,86.00
2019-04-14T07:48:16.866Z,92.40
2019-04-14T07:49:16.868Z,96.50
2019-04-14T07:50:16.860Z,94.40
2019-04-14T07:51:16.912Z,95.50
2019-04-14T07:52:16.849Z,93.80
2019-04-14T07:53:16.842Z,86.50
2019-04-14T07:54:16.860Z,84.70
2019-04-14T07:55:16.814Z,92.30
2019-04-14T07:56:16.777Z,100.50
2019-04-14T07:57:16.781Z,101.20
2019-04-14T07:58:16.761Z,99.20
2019-04-14T07:59:16.748Z,126.80
2019-04-14T08:00:16.753Z,113.30
2019-04-14T08:01:16.726Z,109.90
2019-04-14T08:02:16.736Z,107.70
2019-04-14T08:03:16.721Z,103.80
2019-04-14T08:04:16.761Z,120.80
2019-04-14T08:05:16.712Z,102.10
2019-04-14T08:06:16.692Z,106.90
2019-04-14T08:07:16.861Z,120.50
2019-04-14T08:08:16.658Z,118.30
2019-04-14T08:09:16.717Z,124.70
2019-04-14T08:10:16.664Z,112.50
2019-04-14T08:11:16.642Z,115.30
2019-04-14T08:12:16.684Z,105.70
2019-04-14T08:13:16.602Z,103.70
2019-04-14T08:14:16.616Z,123.40
2019-04-14T08:15:16.577Z,112.30
2019-04-14T08:16:16.591Z,123.80
2019-04-14T08:17:16.591Z,116.70
2019-04-14T08:18:16.550Z,112.70
2019-04-14T08:19:16.552Z,111.70
2019-04-14T08:20:26.857Z,107.90
2019-04-14T08:21:17.601Z,128.00
2019-04-14T08:22:16.511Z,118.50
2019-04-14T08:23:16.514Z,113.20
2019-04-14T08:24:16.508Z,124.50
2019-04-14T08:25:16.468Z,112.30
2019-04-14T08:26:16.503Z,120.30
2019-04-14T08:27:16.459Z,110.80
2019-04-14T08:28:16.481Z,116.00
2019-04-14T08:29:16.472Z,120.40
2019-04-14T08:30:16.452Z,126.70
2019-04-14T08:31:16.438Z,116.00
2019-04-14T08:32:16.412Z,137.40
2019-04-14T08:33:16.418Z,132.10
2019-04-14T08:34:16.401Z,134.20
2019-04-14T08:35:16.369Z,133.00
2019-04-14T08:36:16.442Z,134.80
2019-04-14T08:37:16.372Z,133.80
2019-04-14T08:38:16.412Z,120.00
2019-04-14T08:39:16.342Z,135.40
2019-04-14T08:40:16.316Z,118.80
2019-04-14T08:41:16.383Z,117.90
2019-04-14T08:42:16.303Z,111.60
2019-04-14T08:43:16.281Z,108.90
2019-04-14T08:44:16.278Z,121.80
2019-04-14T08:45:16.399Z,117.80
2019-04-14T08:46:16.273Z,116.80
2019-04-14T08:47:16.244Z,117.20
2019-04-14T08:48:16.258Z,122.90
2019-04-14T08:49:16.272Z,132.10
2019-04-14T08:50:16.231Z,127.20
2019-04-14T08:51:16.229Z,132.00
2019-04-14T08:52:16.212Z,130.90
2019-04-14T08:53:16.196Z,125.50
2019-04-14T08:54:16.164Z,119.10
2019-04-14T08:55:16.167Z,122.90
2019-04-14T08:56:16.155Z,139.80
2019-04-14T08:57:16.177Z,134.50
2019-04-14T08:58:16.130Z,130.30
2019-04-14T08:59:16.112Z,131.50
2019-04-14T09:00:16.136Z,114.50
2019-04-14T09:01:16.087Z,116.10
2019-04-14T09:02:16.076Z,111.10
2019-04-14T09:03:16.124Z,103.30
2019-04-14T09:04:16.064Z,101.00
2019-04-14T09:05:16.122Z,100.00
2019-04-14T09:06:16.037Z,104.40
2019-04-14T09:07:16.052Z,103.40
2019-04-14T09:08:16.035Z,105.50
2019-04-14T09:09:16.133Z,112.00
2019-04-14T09:10:16.004Z,108.40
2019-04-14T09:11:15.985Z,107.80
2019-04-14T09:12:16.438Z,103.90
2019-04-14T09:13:15.967Z,100.70
2019-04-14T09:14:16.124Z,112.70
2019-04-14T09:15:16.002Z,122.10
2019-04-14T09:16:15.935Z,106.80
2019-04-14T09:17:15.948Z,115.20
2019-04-14T09:18:15.936Z,108.60
2019-04-14T09:19:15.900Z,113.80
2019-04-14T09:20:15.887Z,98.60
2019-04-14T09:21:16.003Z,97.40
2019-04-14T09:22:15.896Z,105.40
2019-04-14T09:23:15.863Z,104.80
2019-04-14T09:24:15.850Z,100.00
2019-04-14T09:25:15.835Z,108.10
2019-04-14T09:26:15.828Z,124.00
2019-04-14T09:27:15.846Z,123.70
2019-04-14T09:28:15.826Z,127.10
2019-04-14T09:29:15.808Z,120.30
2019-04-14T09:30:15.904Z,112.80
2019-04-14T09:31:15.799Z,104.00
2019-04-14T09:32:15.786Z,125.60
2019-04-14T09:33:15.845Z,108.40
2019-04-14T09:34:15.756Z,125.30
2019-04-14T09:35:15.735Z,115.70
2019-04-14T09:36:15.717Z,118.80
2019-04-14T09:37:15.715Z,106.80
2019-04-14T09:38:15.722Z,103.20
2019-04-14T09:39:15.713Z,104.80
2019-04-14T09:40:15.682Z,110.30
2019-04-14T09:41:15.799Z,126.90
2019-04-14T09:42:15.698Z,111.20
2019-04-14T09:43:15.640Z,111.50
2019-04-14T09:44:15.640Z,107.50
2019-04-14T09:45:15.787Z,124.60
2019-04-14T09:46:15.630Z,126.40
2019-04-14T09:47:15.623Z,102.20
2019-04-14T09:48:15.616Z,126.00
2019-04-14T09:49:15.579Z,104.70
2019-04-14T09:50:15.576Z,99.60
2019-04-14T09:51:15.562Z,103.50
2019-04-14T09:52:15.546Z,102.50
2019-04-14T09:53:15.564Z,114.80
2019-04-14T09:54:15.556Z,110.30
2019-04-14T09:55:15.579Z,104.60
2019-04-14T09:56:15.509Z,105.50
2019-04-14T09:57:15.492Z,116.20
2019-04-14T09:58:15.489Z,107.80
2019-04-14T09:59:15.492Z,101.10
2019-04-14T10:00:15.543Z,101.30
2019-04-14T10:01:15.464Z,100.90
2019-04-14T10:02:15.490Z,94.90
2019-04-14T10:03:15.437Z,109.80
2019-04-14T10:04:15.442Z,99.90
2019-04-14T10:05:15.446Z,126.70
2019-04-14T10:06:15.440Z,107.70
2019-04-14T10:07:15.415Z,106.20
2019-04-14T10:08:15.406Z,102.30
2019-04-14T10:09:15.465Z,105.10
2019-04-14T10:10:15.367Z,110.30
2019-04-14T10:11:15.359Z,111.50
2019-04-14T10:12:15.401Z,98.90
2019-04-14T10:13:15.394Z,96.00
2019-04-14T10:14:15.349Z,90.10
2019-04-14T10:15:15.314Z,100.70
2019-04-14T10:16:15.354Z,106.30
2019-04-14T10:17:15.293Z,95.70
2019-04-14T10:18:15.273Z,92.00
2019-04-14T10:19:15.305Z,93.50
2019-04-14T10:20:15.258Z,98.70
2019-04-14T10:21:17.708Z,93.00
2019-04-14T10:22:15.279Z,98.50
2019-04-14T10:23:15.217Z,122.80
2019-04-14T10:24:15.223Z,87.70
2019-04-14T10:25:15.309Z,90.50
2019-04-14T10:26:15.203Z,90.00
2019-04-14T10:27:15.178Z,92.20
2019-04-14T10:28:15.179Z,86.70
2019-04-14T10:29:15.173Z,93.10
2019-04-14T10:30:15.141Z,93.60
2019-04-14T10:31:15.318Z,114.70
2019-04-14T10:32:15.132Z,96.00
2019-04-14T10:33:15.141Z,93.00
2019-04-14T10:34:15.137Z,95.60
2019-04-14T10:35:15.083Z,104.30
2019-04-14T10:36:15.088Z,96.30
2019-04-14T10:37:15.305Z,90.60
2019-04-14T10:38:15.091Z,96.30
2019-04-14T10:39:15.041Z,99.40
2019-04-14T10:40:15.064Z,102.20
2019-04-14T10:41:15.062Z,101.10
2019-04-14T10:42:15.007Z,103.20
2019-04-14T10:43:15.012Z,100.20
2019-04-14T10:44:15.115Z,108.20
2019-04-14T10:45:15.010Z,106.10
2019-04-14T10:46:14.971Z,114.20
2019-04-14T10:47:15.042Z,107.70
2019-04-14T10:48:14.951Z,125.10
2019-04-14T10:49:14.964Z,117.60
2019-04-14T10:50:14.942Z,108.50
2019-04-14T10:51:15.018Z,113.30
2019-04-14T10:52:14.919Z,108.90
2019-04-14T10:53:14.892Z,104.70
2019-04-14T10:54:14.905Z,103.90
2019-04-14T10:55:14.996Z,105.50
2019-04-14T10:56:14.868Z,105.30
2019-04-14T10:57:14.855Z,100.90
2019-04-14T10:58:14.868Z,100.80
2019-04-14T10:59:14.884Z,117.80
2019-04-14T11:00:14.822Z,108.50
2019-04-14T11:01:14.807Z,103.40
2019-04-14T11:02:14.895Z,99.40
2019-04-14T11:03:14.798Z,104.80
2019-04-14T11:04:14.807Z,98.60
2019-04-14T11:05:14.781Z,104.70
2019-04-14T11:06:14.804Z,119.80
2019-04-14T11:07:14.784Z,122.70
2019-04-14T11:08:14.732Z,130.30
2019-04-14T11:09:14.743Z,132.90
2019-04-14T11:10:14.729Z,134.80
2019-04-14T11:11:14.711Z,150.20
2019-04-14T11:12:14.823Z,125.40
2019-04-14T11:13:14.694Z,119.80
2019-04-14T11:14:14.690Z,112.70
2019-04-14T11:15:15.596Z,107.40
2019-04-14T11:16:14.661Z,119.90
2019-04-14T11:17:14.663Z,134.10
2019-04-14T11:18:14.654Z,134.50
2019-04-14T11:19:14.687Z,136.80
2019-04-14T11:20:14.624Z,123.30
2019-04-14T11:21:14.678Z,138.80
2019-04-14T11:22:14.583Z,144.40
2019-04-14T11:23:14.570Z,127.60
2019-04-14T11:24:14.588Z,137.20
2019-04-14T11:25:14.580Z,123.10
2019-04-14T11:26:14.536Z,148.30
2019-04-14T11:27:14.539Z,143.20
2019-04-14T11:28:14.526Z,144.20
2019-04-14T11:29:14.576Z,132.90
2019-04-14T11:30:14.522Z,126.10
2019-04-14T11:31:14.483Z,128.00
2019-04-14T11:32:14.475Z,122.50
2019-04-14T11:33:14.519Z,141.90
2019-04-14T11:34:14.466Z,151.00
2019-04-14T11:35:16.433Z,153.50
2019-04-14T11:36:14.536Z,136.60
2019-04-14T11:37:14.519Z,120.90
2019-04-14T11:38:14.409Z,128.40
2019-04-14T11:39:14.422Z,125.60
2019-04-14T11:40:14.713Z,130.50
2019-04-14T11:41:14.393Z,188.80
2019-04-14T11:42:14.389Z,175.30
2019-04-14T11:43:14.352Z,126.40
2019-04-14T11:44:14.367Z,127.60
2019-04-14T11:45:14.351Z,148.00
2019-04-14T11:46:14.399Z,134.40
2019-04-14T11:47:16.292Z,161.60
2019-04-14T11:48:14.563Z,135.20
2019-04-14T11:49:14.290Z,174.90
2019-04-14T11:50:14.369Z,132.10
2019-04-14T11:51:14.278Z,151.80
2019-04-14T11:52:14.262Z,142.00
2019-04-14T11:53:14.298Z,138.60
2019-04-14T11:54:14.235Z,141.50
2019-04-14T11:55:14.234Z,151.20
2019-04-14T11:56:14.233Z,154.30
2019-04-14T11:57:14.222Z,135.00
2019-04-14T11:58:14.207Z,130.60
2019-04-14T11:59:14.238Z,168.40
2019-04-14T12:00:14.219Z,179.00
2019-04-14T12:01:14.201Z,141.50
2019-04-14T12:02:14.190Z,133.70
2019-04-14T12:03:14.145Z,162.60
2019-04-14T12:04:14.123Z,153.90
2019-04-14T12:05:14.141Z,135.80
2019-04-14T12:06:14.167Z,153.50
2019-04-14T12:07:14.095Z,156.70
2019-04-14T12:08:14.091Z,143.20
2019-04-14T12:09:14.072Z,137.40
2019-04-14T12:10:14.060Z,137.90
2019-04-14T12:11:14.133Z,135.20
2019-04-14T12:12:14.129Z,136.70
2019-04-14T12:13:14.051Z,139.00
2019-04-14T12:14:14.018Z,149.10
2019-04-14T12:15:16.579Z,134.70
2019-04-14T12:16:14.036Z,136.70
2019-04-14T12:17:13.991Z,141.50
2019-04-14T12:18:13.981Z,136.70
2019-04-14T12:19:14.036Z,141.00
2019-04-14T12:20:14.076Z,175.30
2019-04-14T12:21:13.990Z,151.00
2019-04-14T12:22:13.972Z,177.30
2019-04-14T12:23:16.070Z,187.20
2019-04-14T12:24:14.023Z,149.90
2019-04-14T12:25:13.921Z,141.50
2019-04-14T12:26:13.977Z,142.70
2019-04-14T12:27:13.876Z,141.60
2019-04-14T12:28:13.935Z,182.90
2019-04-14T12:29:14.208Z,150.40
2019-04-14T12:30:14.002Z,159.70
2019-04-14T12:31:15.169Z,180.60
2019-04-14T12:32:14.990Z,161.30
2019-04-14T12:33:13.839Z,159.00
2019-04-14T12:34:13.833Z,163.20
2019-04-14T12:35:13.806Z,164.50
2019-04-14T12:36:13.828Z,158.20
2019-04-14T12:37:13.789Z,189.40
2019-04-14T12:38:13.763Z,166.10
2019-04-14T12:39:13.774Z,199.50
2019-04-14T12:40:13.739Z,192.00
2019-04-14T12:41:13.729Z,167.70
2019-04-14T12:42:13.715Z,180.80
2019-04-14T12:43:13.783Z,183.50
2019-04-14T12:44:13.765Z,182.90
2019-04-14T12:45:13.689Z,168.70
2019-04-14T12:46:13.711Z,184.60
2019-04-14T12:47:13.738Z,157.00
2019-04-14T12:48:13.658Z,166.30
2019-04-14T12:49:13.661Z,161.20
2019-04-14T12:50:13.632Z,150.80
2019-04-14T12:51:13.629Z,152.80
2019-04-14T12:52:21.198Z,158.30
2019-04-14T12:53:14.673Z,138.20
2019-04-14T12:54:14.049Z,139.10
2019-04-14T12:55:13.576Z,140.50
2019-04-14T12:56:13.650Z,140.40
2019-04-14T12:57:13.587Z,135.60
2019-04-14T12:58:13.577Z,139.60
2019-04-14T12:59:13.545Z,138.10
2019-04-14T13:00:13.521Z,138.90
2019-04-14T13:01:13.510Z,129.50
2019-04-14T13:02:13.504Z,166.80
2019-04-14T13:03:13.555Z,147.80
2019-04-14T13:04:13.713Z,143.20